sensor_id;sensor_type;location;lat;lon;timestamp;temperature;humidity
24560;DHT22;12727;49.934;8.656;2024-01-30T00:01:13;1.20;99.90
24560;DHT22;12727;49.934;8.656;2024-01-30T00:03:39;1.00;99.90
24560;DHT22;12727;49.934;8.656;2024-01-30T00:06:05;1.10;99.90
24560;DHT22;12727;49.934;8.656;2024-01-30T00:08:30;1.50;99.90
24560;DHT22;12727;49.934;8.656;2024-01-30T00:10:56;1.50;99.90
24560;DHT22;12727;49.934;8.656;2024-01-30T00:13:21;1.20;99.90
24560;DHT22;12727;49.934;8.656;2024-01-30T00:15:48;1.00;99.90
24560;DHT22;12727;49.934;8.656;2024-01-30T00:18:13;0.90;99.90
24560;DHT22;12727;49.934;8.656;2024-01-30T00:20:39;0.80;99.90
24560;DHT22;12727;49.934;8.656;2024-01-30T00:23:05;0.80;99.90
24560;DHT22;12727;49.934;8.656;2024-01-30T00:25:30;1.10;99.90
24560;DHT22;12727;49.934;8.656;2024-01-30T00:27:56;1.20;99.90
24560;DHT22;12727;49.934;8.656;2024-01-30T00:30:21;1.00;99.90
24560;DHT22;12727;49.934;8.656;2024-01-30T00:32:47;0.90;99.90
24560;DHT22;12727;49.934;8.656;2024-01-30T00:35:13;0.80;99.90
24560;DHT22;12727;49.934;8.656;2024-01-30T00:37:38;1.10;99.90
24560;DHT22;12727;49.934;8.656;2024-01-30T00:40:04;1.30;99.90
24560;DHT22;12727;49.934;8.656;2024-01-30T00:42:31;1.40;99.90
24560;DHT22;12727;49.934;8.656;2024-01-30T00:44:57;1.20;99.90
24560;DHT22;12727;49.934;8.656;2024-01-30T00:47:22;0.90;99.90
24560;DHT22;12727;49.934;8.656;2024-01-30T00:49:48;0.70;99.90
24560;DHT22;12727;49.934;8.656;2024-01-30T00:52:13;0.70;99.90
24560;DHT22;12727;49.934;8.656;2024-01-30T00:54:39;0.60;99.90
24560;DHT22;12727;49.934;8.656;2024-01-30T00:57:05;0.60;99.90
24560;DHT22;12727;49.934;8.656;2024-01-30T00:59:30;0.50;99.90
24560;DHT22;12727;49.934;8.656;2024-01-30T01:01:56;0.50;99.90
24560;DHT22;12727;49.934;8.656;2024-01-30T01:04:21;0.50;99.90
24560;DHT22;12727;49.934;8.656;2024-01-30T01:06:47;0.50;99.90
24560;DHT22;12727;49.934;8.656;2024-01-30T01:09:13;0.50;99.90
24560;DHT22;12727;49.934;8.656;2024-01-30T01:11:38;0.60;99.90
24560;DHT22;12727;49.934;8.656;2024-01-30T01:14:04;0.50;99.90
24560;DHT22;12727;49.934;8.656;2024-01-30T01:16:30;0.50;99.90
24560;DHT22;12727;49.934;8.656;2024-01-30T01:18:56;0.70;99.90
24560;DHT22;12727;49.934;8.656;2024-01-30T01:21:21;1.20;99.90
24560;DHT22;12727;49.934;8.656;2024-01-30T01:23:48;1.40;99.90
24560;DHT22;12727;49.934;8.656;2024-01-30T01:26:14;1.10;99.90
24560;DHT22;12727;49.934;8.656;2024-01-30T01:28:40;0.80;99.90
24560;DHT22;12727;49.934;8.656;2024-01-30T01:31:06;0.80;99.90
24560;DHT22;12727;49.934;8.656;2024-01-30T01:33:32;0.60;99.90
24560;DHT22;12727;49.934;8.656;2024-01-30T01:35:59;0.40;99.90
24560;DHT22;12727;49.934;8.656;2024-01-30T01:38:25;0.50;99.90
24560;DHT22;12727;49.934;8.656;2024-01-30T01:40:51;0.50;99.90
24560;DHT22;12727;49.934;8.656;2024-01-30T01:43:16;0.50;99.90
24560;DHT22;12727;49.934;8.656;2024-01-30T01:45:42;0.50;99.90
24560;DHT22;12727;49.934;8.656;2024-01-30T01:48:08;0.40;99.90
24560;DHT22;12727;49.934;8.656;2024-01-30T01:50:34;0.40;99.90
24560;DHT22;12727;49.934;8.656;2024-01-30T01:53:01;0.40;99.90
24560;DHT22;12727;49.934;8.656;2024-01-30T01:55:29;0.30;99.90
24560;DHT22;12727;49.934;8.656;2024-01-30T01:57:56;0.30;99.90
24560;DHT22;12727;49.934;8.656;2024-01-30T02:00:22;0.30;99.90
24560;DHT22;12727;49.934;8.656;2024-01-30T02:02:49;0.20;99.90
24560;DHT22;12727;49.934;8.656;2024-01-30T02:05:15;0.20;99.90
24560;DHT22;12727;49.934;8.656;2024-01-30T02:07:42;0.20;99.90
24560;DHT22;12727;49.934;8.656;2024-01-30T02:10:08;0.10;99.90
24560;DHT22;12727;49.934;8.656;2024-01-30T02:12:35;0.10;99.90
24560;DHT22;12727;49.934;8.656;2024-01-30T02:15:00;0.10;99.90
24560;DHT22;12727;49.934;8.656;2024-01-30T02:17:26;0.10;99.90
24560;DHT22;12727;49.934;8.656;2024-01-30T02:19:52;0.10;99.90
24560;DHT22;12727;49.934;8.656;2024-01-30T02:22:18;0.00;99.90
24560;DHT22;12727;49.934;8.656;2024-01-30T02:24:44;0.00;99.90
24560;DHT22;12727;49.934;8.656;2024-01-30T02:27:10;0.00;99.90
24560;DHT22;12727;49.934;8.656;2024-01-30T02:29:35;0.00;99.90
24560;DHT22;12727;49.934;8.656;2024-01-30T02:32:01;-0.10;99.90
24560;DHT22;12727;49.934;8.656;2024-01-30T02:34:27;0.00;99.90
24560;DHT22;12727;49.934;8.656;2024-01-30T02:36:52;-0.10;99.90
24560;DHT22;12727;49.934;8.656;2024-01-30T02:39:18;-0.10;99.90
24560;DHT22;12727;49.934;8.656;2024-01-30T02:41:43;-0.10;99.90
24560;DHT22;12727;49.934;8.656;2024-01-30T02:44:09;-0.10;99.90
24560;DHT22;12727;49.934;8.656;2024-01-30T02:46:34;-0.10;99.90
24560;DHT22;12727;49.934;8.656;2024-01-30T02:49:00;-0.10;99.90
24560;DHT22;12727;49.934;8.656;2024-01-30T02:51:25;-0.10;99.90
24560;DHT22;12727;49.934;8.656;2024-01-30T02:53:51;0.10;99.90
24560;DHT22;12727;49.934;8.656;2024-01-30T02:56:16;0.50;99.90
24560;DHT22;12727;49.934;8.656;2024-01-30T02:58:42;0.90;99.90
24560;DHT22;12727;49.934;8.656;2024-01-30T03:01:07;0.50;99.90
24560;DHT22;12727;49.934;8.656;2024-01-30T03:03:33;0.10;99.90
24560;DHT22;12727;49.934;8.656;2024-01-30T03:06:02;0.00;99.90
24560;DHT22;12727;49.934;8.656;2024-01-30T03:08:28;-0.20;99.90
24560;DHT22;12727;49.934;8.656;2024-01-30T03:10:53;-0.30;99.90
24560;DHT22;12727;49.934;8.656;2024-01-30T03:13:19;-0.30;99.90
24560;DHT22;12727;49.934;8.656;2024-01-30T03:15:44;-0.30;99.90
24560;DHT22;12727;49.934;8.656;2024-01-30T03:18:10;-0.30;99.90
24560;DHT22;12727;49.934;8.656;2024-01-30T03:20:35;-0.30;99.90
24560;DHT22;12727;49.934;8.656;2024-01-30T03:23:01;-0.40;99.90
24560;DHT22;12727;49.934;8.656;2024-01-30T03:25:27;-0.40;99.90
24560;DHT22;12727;49.934;8.656;2024-01-30T03:27:52;-0.50;99.90
24560;DHT22;12727;49.934;8.656;2024-01-30T03:33:24;-0.40;99.90
24560;DHT22;12727;49.934;8.656;2024-01-30T03:35:49;-0.30;99.90
24560;DHT22;12727;49.934;8.656;2024-01-30T03:38:15;-0.20;99.90
24560;DHT22;12727;49.934;8.656;2024-01-30T03:40:40;0.00;99.90
24560;DHT22;12727;49.934;8.656;2024-01-30T03:43:06;0.00;99.90
24560;DHT22;12727;49.934;8.656;2024-01-30T03:45:31;-0.10;99.90
24560;DHT22;12727;49.934;8.656;2024-01-30T03:47:57;-0.10;99.90
24560;DHT22;12727;49.934;8.656;2024-01-30T03:50:22;-0.20;99.90
24560;DHT22;12727;49.934;8.656;2024-01-30T03:52:48;-0.40;99.90
24560;DHT22;12727;49.934;8.656;2024-01-30T03:55:13;-0.50;99.90
24560;DHT22;12727;49.934;8.656;2024-01-30T03:57:39;-0.50;99.90
24560;DHT22;12727;49.934;8.656;2024-01-30T04:00:05;-0.40;99.90
24560;DHT22;12727;49.934;8.656;2024-01-30T04:02:31;-0.40;99.90
24560;DHT22;12727;49.934;8.656;2024-01-30T04:04:56;-0.40;99.90
24560;DHT22;12727;49.934;8.656;2024-01-30T04:07:22;-0.50;99.90
24560;DHT22;12727;49.934;8.656;2024-01-30T04:09:47;-0.50;99.90
24560;DHT22;12727;49.934;8.656;2024-01-30T04:12:13;-0.50;99.90
24560;DHT22;12727;49.934;8.656;2024-01-30T04:14:39;-0.50;99.90
24560;DHT22;12727;49.934;8.656;2024-01-30T04:17:04;-0.50;99.90
24560;DHT22;12727;49.934;8.656;2024-01-30T04:19:30;-0.40;99.90
24560;DHT22;12727;49.934;8.656;2024-01-30T04:21:55;-0.40;99.90
24560;DHT22;12727;49.934;8.656;2024-01-30T04:24:21;-0.40;99.90
24560;DHT22;12727;49.934;8.656;2024-01-30T04:26:46;-0.40;99.90
24560;DHT22;12727;49.934;8.656;2024-01-30T04:29:12;-0.40;99.90
24560;DHT22;12727;49.934;8.656;2024-01-30T04:31:38;-0.40;99.90
24560;DHT22;12727;49.934;8.656;2024-01-30T04:34:03;-0.40;99.90
24560;DHT22;12727;49.934;8.656;2024-01-30T04:36:29;-0.40;99.90
24560;DHT22;12727;49.934;8.656;2024-01-30T04:38:54;-0.30;99.90
24560;DHT22;12727;49.934;8.656;2024-01-30T04:41:20;-0.30;99.90
24560;DHT22;12727;49.934;8.656;2024-01-30T04:43:45;-0.30;99.90
24560;DHT22;12727;49.934;8.656;2024-01-30T04:46:11;-0.30;99.90
24560;DHT22;12727;49.934;8.656;2024-01-30T04:48:37;-0.30;99.90
24560;DHT22;12727;49.934;8.656;2024-01-30T04:51:02;-0.30;99.90
24560;DHT22;12727;49.934;8.656;2024-01-30T04:53:30;-0.30;99.90
24560;DHT22;12727;49.934;8.656;2024-01-30T04:55:56;-0.30;99.90
24560;DHT22;12727;49.934;8.656;2024-01-30T04:58:21;-0.30;99.90
24560;DHT22;12727;49.934;8.656;2024-01-30T05:00:47;0.10;99.90
24560;DHT22;12727;49.934;8.656;2024-01-30T05:03:17;0.00;99.90
24560;DHT22;12727;49.934;8.656;2024-01-30T05:05:42;-0.20;99.90
24560;DHT22;12727;49.934;8.656;2024-01-30T05:08:08;-0.30;99.90
24560;DHT22;12727;49.934;8.656;2024-01-30T05:10:33;-0.40;99.90
24560;DHT22;12727;49.934;8.656;2024-01-30T05:12:59;-0.50;99.90
24560;DHT22;12727;49.934;8.656;2024-01-30T05:15:24;-0.60;99.90
24560;DHT22;12727;49.934;8.656;2024-01-30T05:17:50;-0.60;99.90
24560;DHT22;12727;49.934;8.656;2024-01-30T05:20:16;-0.60;99.90
24560;DHT22;12727;49.934;8.656;2024-01-30T05:22:42;-0.60;99.90
24560;DHT22;12727;49.934;8.656;2024-01-30T05:25:11;-0.70;99.90
24560;DHT22;12727;49.934;8.656;2024-01-30T05:27:37;-0.70;99.90
24560;DHT22;12727;49.934;8.656;2024-01-30T05:30:03;-0.70;99.90
24560;DHT22;12727;49.934;8.656;2024-01-30T05:32:28;-0.60;99.90
24560;DHT22;12727;49.934;8.656;2024-01-30T05:34:54;-0.50;99.90
24560;DHT22;12727;49.934;8.656;2024-01-30T05:37:19;-0.50;99.90
24560;DHT22;12727;49.934;8.656;2024-01-30T05:39:45;-0.40;99.90
24560;DHT22;12727;49.934;8.656;2024-01-30T05:42:10;-0.40;99.90
24560;DHT22;12727;49.934;8.656;2024-01-30T05:44:36;-0.40;99.90
24560;DHT22;12727;49.934;8.656;2024-01-30T05:47:02;-0.30;99.90
24560;DHT22;12727;49.934;8.656;2024-01-30T05:49:27;-0.30;99.90
24560;DHT22;12727;49.934;8.656;2024-01-30T05:51:53;-0.30;99.90
24560;DHT22;12727;49.934;8.656;2024-01-30T05:54:19;-0.20;99.90
24560;DHT22;12727;49.934;8.656;2024-01-30T05:56:44;-0.30;99.90
24560;DHT22;12727;49.934;8.656;2024-01-30T05:59:10;-0.30;99.90
24560;DHT22;12727;49.934;8.656;2024-01-30T06:01:35;-0.30;99.90
24560;DHT22;12727;49.934;8.656;2024-01-30T06:04:01;-0.30;99.90
24560;DHT22;12727;49.934;8.656;2024-01-30T06:06:27;-0.40;99.90
24560;DHT22;12727;49.934;8.656;2024-01-30T06:08:52;-0.30;99.90
24560;DHT22;12727;49.934;8.656;2024-01-30T06:11:20;-0.40;99.90
24560;DHT22;12727;49.934;8.656;2024-01-30T06:13:46;-0.30;99.90
24560;DHT22;12727;49.934;8.656;2024-01-30T06:16:12;-0.30;99.90
24560;DHT22;12727;49.934;8.656;2024-01-30T06:18:37;-0.30;99.90
24560;DHT22;12727;49.934;8.656;2024-01-30T06:21:04;-0.30;99.90
24560;DHT22;12727;49.934;8.656;2024-01-30T06:23:30;-0.30;99.90
24560;DHT22;12727;49.934;8.656;2024-01-30T06:25:55;-0.30;99.90
24560;DHT22;12727;49.934;8.656;2024-01-30T06:28:21;-0.20;99.90
24560;DHT22;12727;49.934;8.656;2024-01-30T06:30:47;0.10;99.90
24560;DHT22;12727;49.934;8.656;2024-01-30T06:33:13;0.20;99.90
24560;DHT22;12727;49.934;8.656;2024-01-30T06:35:39;0.30;99.90
24560;DHT22;12727;49.934;8.656;2024-01-30T06:38:05;0.00;99.90
24560;DHT22;12727;49.934;8.656;2024-01-30T06:40:31;-0.30;99.90
24560;DHT22;12727;49.934;8.656;2024-01-30T06:42:57;-0.40;99.90
24560;DHT22;12727;49.934;8.656;2024-01-30T06:45:22;-0.40;99.90
24560;DHT22;12727;49.934;8.656;2024-01-30T06:47:48;-0.40;99.90
24560;DHT22;12727;49.934;8.656;2024-01-30T06:50:13;-0.30;99.90
24560;DHT22;12727;49.934;8.656;2024-01-30T06:52:39;-0.20;99.90
24560;DHT22;12727;49.934;8.656;2024-01-30T06:55:05;0.00;99.90
24560;DHT22;12727;49.934;8.656;2024-01-30T06:57:31;-0.10;99.90
24560;DHT22;12727;49.934;8.656;2024-01-30T06:59:56;-0.30;99.90
24560;DHT22;12727;49.934;8.656;2024-01-30T07:02:22;-0.30;99.90
24560;DHT22;12727;49.934;8.656;2024-01-30T07:04:47;-0.30;99.90
24560;DHT22;12727;49.934;8.656;2024-01-30T07:07:13;-0.10;99.90
24560;DHT22;12727;49.934;8.656;2024-01-30T07:09:40;0.10;99.90
24560;DHT22;12727;49.934;8.656;2024-01-30T07:12:06;0.20;99.90
24560;DHT22;12727;49.934;8.656;2024-01-30T07:14:32;0.20;99.90
24560;DHT22;12727;49.934;8.656;2024-01-30T07:16:58;0.00;99.90
24560;DHT22;12727;49.934;8.656;2024-01-30T07:19:23;-0.20;99.90
24560;DHT22;12727;49.934;8.656;2024-01-30T07:21:49;-0.20;99.90
24560;DHT22;12727;49.934;8.656;2024-01-30T07:24:14;-0.10;99.90
24560;DHT22;12727;49.934;8.656;2024-01-30T07:26:40;0.30;99.90
24560;DHT22;12727;49.934;8.656;2024-01-30T07:29:06;0.10;99.90
24560;DHT22;12727;49.934;8.656;2024-01-30T07:31:32;0.10;99.90
24560;DHT22;12727;49.934;8.656;2024-01-30T07:33:57;0.00;99.90
24560;DHT22;12727;49.934;8.656;2024-01-30T07:36:23;0.00;99.90
24560;DHT22;12727;49.934;8.656;2024-01-30T07:38:48;0.00;99.90
24560;DHT22;12727;49.934;8.656;2024-01-30T07:41:14;0.00;99.90
24560;DHT22;12727;49.934;8.656;2024-01-30T07:43:39;0.00;99.90
24560;DHT22;12727;49.934;8.656;2024-01-30T07:46:05;0.20;99.90
24560;DHT22;12727;49.934;8.656;2024-01-30T07:48:33;0.60;99.90
24560;DHT22;12727;49.934;8.656;2024-01-30T07:50:59;0.90;99.90
24560;DHT22;12727;49.934;8.656;2024-01-30T07:53:25;1.10;99.90
24560;DHT22;12727;49.934;8.656;2024-01-30T07:55:51;0.90;99.90
24560;DHT22;12727;49.934;8.656;2024-01-30T07:58:17;0.70;99.90
24560;DHT22;12727;49.934;8.656;2024-01-30T08:00:43;0.70;99.90
24560;DHT22;12727;49.934;8.656;2024-01-30T08:03:08;0.70;99.90
24560;DHT22;12727;49.934;8.656;2024-01-30T08:05:34;0.90;99.90
24560;DHT22;12727;49.934;8.656;2024-01-30T08:07:59;1.00;99.90
24560;DHT22;12727;49.934;8.656;2024-01-30T08:10:25;1.10;99.90
24560;DHT22;12727;49.934;8.656;2024-01-30T08:12:50;1.20;99.90
24560;DHT22;12727;49.934;8.656;2024-01-30T08:15:16;1.30;99.90
24560;DHT22;12727;49.934;8.656;2024-01-30T08:17:41;1.40;99.90
24560;DHT22;12727;49.934;8.656;2024-01-30T08:20:07;1.50;99.90
24560;DHT22;12727;49.934;8.656;2024-01-30T08:22:33;1.50;99.90
24560;DHT22;12727;49.934;8.656;2024-01-30T08:24:59;1.60;99.90
24560;DHT22;12727;49.934;8.656;2024-01-30T08:27:25;1.70;99.90
24560;DHT22;12727;49.934;8.656;2024-01-30T08:29:50;1.90;99.90
24560;DHT22;12727;49.934;8.656;2024-01-30T08:32:16;2.00;99.90
24560;DHT22;12727;49.934;8.656;2024-01-30T08:34:42;2.20;99.90
24560;DHT22;12727;49.934;8.656;2024-01-30T08:37:08;2.40;99.90
24560;DHT22;12727;49.934;8.656;2024-01-30T08:39:33;2.60;99.90
24560;DHT22;12727;49.934;8.656;2024-01-30T08:41:59;2.80;99.90
24560;DHT22;12727;49.934;8.656;2024-01-30T08:44:25;2.90;99.90
24560;DHT22;12727;49.934;8.656;2024-01-30T08:46:50;3.10;99.90
24560;DHT22;12727;49.934;8.656;2024-01-30T08:49:16;3.20;99.90
24560;DHT22;12727;49.934;8.656;2024-01-30T08:51:42;3.50;99.90
24560;DHT22;12727;49.934;8.656;2024-01-30T08:54:08;3.60;99.90
24560;DHT22;12727;49.934;8.656;2024-01-30T08:56:33;3.80;99.90
24560;DHT22;12727;49.934;8.656;2024-01-30T08:58:59;4.00;99.90
24560;DHT22;12727;49.934;8.656;2024-01-30T09:01:27;3.90;99.90
24560;DHT22;12727;49.934;8.656;2024-01-30T09:03:53;4.00;99.90
24560;DHT22;12727;49.934;8.656;2024-01-30T09:06:19;4.10;99.90
24560;DHT22;12727;49.934;8.656;2024-01-30T09:08:44;3.70;99.90
24560;DHT22;12727;49.934;8.656;2024-01-30T09:11:11;3.40;99.90
24560;DHT22;12727;49.934;8.656;2024-01-30T09:13:37;3.20;99.90
24560;DHT22;12727;49.934;8.656;2024-01-30T09:16:03;3.10;99.90
24560;DHT22;12727;49.934;8.656;2024-01-30T09:18:31;3.40;99.90
24560;DHT22;12727;49.934;8.656;2024-01-30T09:20:56;3.50;99.90
24560;DHT22;12727;49.934;8.656;2024-01-30T09:23:22;3.40;99.90
24560;DHT22;12727;49.934;8.656;2024-01-30T09:25:48;3.40;99.90
24560;DHT22;12727;49.934;8.656;2024-01-30T09:28:13;3.40;99.90
24560;DHT22;12727;49.934;8.656;2024-01-30T09:30:39;3.50;99.90
24560;DHT22;12727;49.934;8.656;2024-01-30T09:33:06;3.60;99.90
24560;DHT22;12727;49.934;8.656;2024-01-30T09:35:31;3.60;99.90
24560;DHT22;12727;49.934;8.656;2024-01-30T09:37:57;3.90;99.90
24560;DHT22;12727;49.934;8.656;2024-01-30T09:40:23;4.10;99.90
24560;DHT22;12727;49.934;8.656;2024-01-30T09:42:50;4.20;99.90
24560;DHT22;12727;49.934;8.656;2024-01-30T09:45:18;4.40;99.90
24560;DHT22;12727;49.934;8.656;2024-01-30T09:47:46;4.60;99.90
24560;DHT22;12727;49.934;8.656;2024-01-30T09:50:14;4.60;99.90
24560;DHT22;12727;49.934;8.656;2024-01-30T09:52:40;4.80;99.90
24560;DHT22;12727;49.934;8.656;2024-01-30T09:55:07;5.00;99.90
24560;DHT22;12727;49.934;8.656;2024-01-30T09:57:33;5.50;99.90
24560;DHT22;12727;49.934;8.656;2024-01-30T09:59:59;6.10;99.90
24560;DHT22;12727;49.934;8.656;2024-01-30T10:02:25;6.80;99.90
24560;DHT22;12727;49.934;8.656;2024-01-30T10:04:51;7.20;99.90
24560;DHT22;12727;49.934;8.656;2024-01-30T10:07:20;7.60;99.90
24560;DHT22;12727;49.934;8.656;2024-01-30T10:09:46;7.40;99.90
24560;DHT22;12727;49.934;8.656;2024-01-30T10:12:12;7.10;99.90
24560;DHT22;12727;49.934;8.656;2024-01-30T10:14:41;6.70;99.90
24560;DHT22;12727;49.934;8.656;2024-01-30T10:17:08;6.50;99.90
24560;DHT22;12727;49.934;8.656;2024-01-30T10:19:35;6.40;99.90
24560;DHT22;12727;49.934;8.656;2024-01-30T10:22:01;6.30;99.90
24560;DHT22;12727;49.934;8.656;2024-01-30T10:24:27;6.40;99.90
24560;DHT22;12727;49.934;8.656;2024-01-30T10:26:54;6.50;99.90
24560;DHT22;12727;49.934;8.656;2024-01-30T10:29:20;6.30;99.90
24560;DHT22;12727;49.934;8.656;2024-01-30T10:31:46;6.10;99.90
24560;DHT22;12727;49.934;8.656;2024-01-30T10:34:13;6.00;99.90
24560;DHT22;12727;49.934;8.656;2024-01-30T10:36:43;5.90;99.90
24560;DHT22;12727;49.934;8.656;2024-01-30T10:39:13;5.90;99.90
24560;DHT22;12727;49.934;8.656;2024-01-30T10:41:44;5.80;99.90
24560;DHT22;12727;49.934;8.656;2024-01-30T10:44:18;5.70;99.90
24560;DHT22;12727;49.934;8.656;2024-01-30T10:46:59;5.70;99.90
24560;DHT22;12727;49.934;8.656;2024-01-30T10:49:26;5.80;99.90
24560;DHT22;12727;49.934;8.656;2024-01-30T10:51:52;5.90;99.90
24560;DHT22;12727;49.934;8.656;2024-01-30T10:54:20;6.10;99.90
24560;DHT22;12727;49.934;8.656;2024-01-30T10:56:46;6.30;99.90
24560;DHT22;12727;49.934;8.656;2024-01-30T10:59:12;6.30;99.90
24560;DHT22;12727;49.934;8.656;2024-01-30T11:01:39;6.30;99.90
24560;DHT22;12727;49.934;8.656;2024-01-30T11:04:04;6.40;99.90
24560;DHT22;12727;49.934;8.656;2024-01-30T11:06:30;6.40;99.90
24560;DHT22;12727;49.934;8.656;2024-01-30T11:09:06;6.40;99.90
24560;DHT22;12727;49.934;8.656;2024-01-30T11:11:51;6.50;99.90
24560;DHT22;12727;49.934;8.656;2024-01-30T11:14:23;6.60;99.90
24560;DHT22;12727;49.934;8.656;2024-01-30T11:16:50;6.80;99.90
24560;DHT22;12727;49.934;8.656;2024-01-30T11:19:22;7.30;99.90
24560;DHT22;12727;49.934;8.656;2024-01-30T11:21:50;8.00;99.90
24560;DHT22;12727;49.934;8.656;2024-01-30T11:24:20;8.50;99.90
24560;DHT22;12727;49.934;8.656;2024-01-30T11:26:57;8.30;99.90
24560;DHT22;12727;49.934;8.656;2024-01-30T11:29:28;8.00;99.90
24560;DHT22;12727;49.934;8.656;2024-01-30T11:31:57;7.80;99.90
24560;DHT22;12727;49.934;8.656;2024-01-30T11:34:23;7.90;99.90
24560;DHT22;12727;49.934;8.656;2024-01-30T11:36:56;8.00;99.90
24560;DHT22;12727;49.934;8.656;2024-01-30T11:39:28;8.30;99.90
24560;DHT22;12727;49.934;8.656;2024-01-30T11:41:55;8.30;99.90
24560;DHT22;12727;49.934;8.656;2024-01-30T11:44:21;8.20;99.90
24560;DHT22;12727;49.934;8.656;2024-01-30T11:46:48;8.00;99.90
24560;DHT22;12727;49.934;8.656;2024-01-30T11:49:15;8.00;99.90
24560;DHT22;12727;49.934;8.656;2024-01-30T11:51:41;8.00;99.90
24560;DHT22;12727;49.934;8.656;2024-01-30T11:54:07;8.00;99.90
24560;DHT22;12727;49.934;8.656;2024-01-30T11:56:33;8.00;99.90
24560;DHT22;12727;49.934;8.656;2024-01-30T11:58:58;7.90;99.90
24560;DHT22;12727;49.934;8.656;2024-01-30T12:01:26;7.90;99.90
24560;DHT22;12727;49.934;8.656;2024-01-30T12:03:52;7.90;99.90
24560;DHT22;12727;49.934;8.656;2024-01-30T12:06:17;8.00;99.90
24560;DHT22;12727;49.934;8.656;2024-01-30T12:08:54;8.20;99.90
24560;DHT22;12727;49.934;8.656;2024-01-30T12:11:19;8.20;99.90
24560;DHT22;12727;49.934;8.656;2024-01-30T12:13:45;8.30;99.90
24560;DHT22;12727;49.934;8.656;2024-01-30T12:16:11;8.30;99.90
24560;DHT22;12727;49.934;8.656;2024-01-30T12:18:36;8.30;99.90
24560;DHT22;12727;49.934;8.656;2024-01-30T12:21:02;8.30;99.90
24560;DHT22;12727;49.934;8.656;2024-01-30T12:23:28;8.40;99.90
24560;DHT22;12727;49.934;8.656;2024-01-30T12:25:54;8.50;99.90
24560;DHT22;12727;49.934;8.656;2024-01-30T12:28:20;8.50;99.90
24560;DHT22;12727;49.934;8.656;2024-01-30T12:30:46;8.70;99.90
24560;DHT22;12727;49.934;8.656;2024-01-30T12:33:18;8.60;99.90
24560;DHT22;12727;49.934;8.656;2024-01-30T12:35:47;8.60;99.90
24560;DHT22;12727;49.934;8.656;2024-01-30T12:38:14;8.70;99.90
24560;DHT22;12727;49.934;8.656;2024-01-30T12:40:40;8.70;99.90
24560;DHT22;12727;49.934;8.656;2024-01-30T12:43:05;8.70;99.90
24560;DHT22;12727;49.934;8.656;2024-01-30T12:45:31;8.70;99.90
24560;DHT22;12727;49.934;8.656;2024-01-30T12:47:57;8.70;99.90
24560;DHT22;12727;49.934;8.656;2024-01-30T12:50:23;8.70;99.90
24560;DHT22;12727;49.934;8.656;2024-01-30T12:52:49;8.80;99.90
24560;DHT22;12727;49.934;8.656;2024-01-30T12:55:15;8.80;99.90
24560;DHT22;12727;49.934;8.656;2024-01-30T12:57:40;8.90;99.90
24560;DHT22;12727;49.934;8.656;2024-01-30T13:00:07;8.90;99.90
24560;DHT22;12727;49.934;8.656;2024-01-30T13:02:36;8.90;99.90
24560;DHT22;12727;49.934;8.656;2024-01-30T13:05:05;8.90;99.90
24560;DHT22;12727;49.934;8.656;2024-01-30T13:07:31;8.90;99.90
24560;DHT22;12727;49.934;8.656;2024-01-30T13:09:57;9.00;99.90
24560;DHT22;12727;49.934;8.656;2024-01-30T13:12:28;9.00;99.90
24560;DHT22;12727;49.934;8.656;2024-01-30T13:14:54;9.10;99.90
24560;DHT22;12727;49.934;8.656;2024-01-30T13:17:19;9.10;99.90
24560;DHT22;12727;49.934;8.656;2024-01-30T13:19:45;9.10;99.90
24560;DHT22;12727;49.934;8.656;2024-01-30T13:22:10;9.10;99.90
24560;DHT22;12727;49.934;8.656;2024-01-30T13:24:36;9.20;99.90
24560;DHT22;12727;49.934;8.656;2024-01-30T13:27:02;9.30;99.90
24560;DHT22;12727;49.934;8.656;2024-01-30T13:29:31;9.40;99.90
24560;DHT22;12727;49.934;8.656;2024-01-30T13:31:56;9.60;99.90
24560;DHT22;12727;49.934;8.656;2024-01-30T13:34:22;9.70;99.90
24560;DHT22;12727;49.934;8.656;2024-01-30T13:36:47;9.70;99.90
24560;DHT22;12727;49.934;8.656;2024-01-30T13:39:14;9.70;99.90
24560;DHT22;12727;49.934;8.656;2024-01-30T13:41:41;9.60;99.90
24560;DHT22;12727;49.934;8.656;2024-01-30T13:44:07;9.60;99.90
24560;DHT22;12727;49.934;8.656;2024-01-30T13:46:34;9.50;99.90
24560;DHT22;12727;49.934;8.656;2024-01-30T13:49:00;9.60;99.90
24560;DHT22;12727;49.934;8.656;2024-01-30T13:51:25;9.70;99.90
24560;DHT22;12727;49.934;8.656;2024-01-30T13:53:53;9.80;99.90
24560;DHT22;12727;49.934;8.656;2024-01-30T13:56:19;9.80;99.90
24560;DHT22;12727;49.934;8.656;2024-01-30T13:58:47;9.90;99.90
24560;DHT22;12727;49.934;8.656;2024-01-30T14:01:13;9.80;99.90
24560;DHT22;12727;49.934;8.656;2024-01-30T14:03:38;9.60;99.90
24560;DHT22;12727;49.934;8.656;2024-01-30T14:06:04;9.70;99.90
24560;DHT22;12727;49.934;8.656;2024-01-30T14:08:30;9.70;99.90
24560;DHT22;12727;49.934;8.656;2024-01-30T14:10:55;9.60;99.90
24560;DHT22;12727;49.934;8.656;2024-01-30T14:13:21;9.60;99.90
24560;DHT22;12727;49.934;8.656;2024-01-30T14:15:48;9.60;99.90
24560;DHT22;12727;49.934;8.656;2024-01-30T14:18:15;9.60;99.90
24560;DHT22;12727;49.934;8.656;2024-01-30T14:20:41;9.60;99.90
24560;DHT22;12727;49.934;8.656;2024-01-30T14:23:11;9.70;99.90
24560;DHT22;12727;49.934;8.656;2024-01-30T14:25:38;9.70;99.90
24560;DHT22;12727;49.934;8.656;2024-01-30T14:28:04;9.60;99.90
24560;DHT22;12727;49.934;8.656;2024-01-30T14:30:30;9.60;99.90
24560;DHT22;12727;49.934;8.656;2024-01-30T14:33:18;9.60;99.90
24560;DHT22;12727;49.934;8.656;2024-01-30T14:35:43;9.50;99.90
24560;DHT22;12727;49.934;8.656;2024-01-30T14:38:08;9.60;99.90
24560;DHT22;12727;49.934;8.656;2024-01-30T14:40:35;9.60;99.90
24560;DHT22;12727;49.934;8.656;2024-01-30T14:43:00;9.50;99.90
24560;DHT22;12727;49.934;8.656;2024-01-30T14:45:26;9.50;99.90
24560;DHT22;12727;49.934;8.656;2024-01-30T14:47:52;9.50;99.90
24560;DHT22;12727;49.934;8.656;2024-01-30T14:50:18;9.50;99.90
24560;DHT22;12727;49.934;8.656;2024-01-30T14:52:43;9.50;99.90
24560;DHT22;12727;49.934;8.656;2024-01-30T14:55:10;9.40;99.90
24560;DHT22;12727;49.934;8.656;2024-01-30T14:57:35;9.40;99.90
24560;DHT22;12727;49.934;8.656;2024-01-30T15:00:03;9.30;99.90
24560;DHT22;12727;49.934;8.656;2024-01-30T15:02:29;9.30;99.90
24560;DHT22;12727;49.934;8.656;2024-01-30T15:04:55;9.30;99.90
24560;DHT22;12727;49.934;8.656;2024-01-30T15:07:20;9.30;99.90
24560;DHT22;12727;49.934;8.656;2024-01-30T15:09:46;9.30;99.90
24560;DHT22;12727;49.934;8.656;2024-01-30T15:12:11;9.30;99.90
24560;DHT22;12727;49.934;8.656;2024-01-30T15:14:37;9.30;99.90
24560;DHT22;12727;49.934;8.656;2024-01-30T15:17:03;9.30;99.90
24560;DHT22;12727;49.934;8.656;2024-01-30T15:19:28;9.30;99.90
24560;DHT22;12727;49.934;8.656;2024-01-30T15:21:54;9.30;99.90
24560;DHT22;12727;49.934;8.656;2024-01-30T15:24:19;9.30;99.90
24560;DHT22;12727;49.934;8.656;2024-01-30T15:26:50;9.30;99.90
24560;DHT22;12727;49.934;8.656;2024-01-30T15:29:15;9.30;99.90
24560;DHT22;12727;49.934;8.656;2024-01-30T15:31:41;9.30;99.90
24560;DHT22;12727;49.934;8.656;2024-01-30T15:34:06;9.40;99.90
24560;DHT22;12727;49.934;8.656;2024-01-30T15:36:32;9.40;99.90
24560;DHT22;12727;49.934;8.656;2024-01-30T15:38:57;9.40;99.90